createdAt,value
2022-11-24T00:02:04.599Z,3.19
2022-11-24T00:07:10.756Z,3.19
2022-11-24T00:12:16.795Z,3.21
2022-11-24T00:17:23.641Z,3.19
2022-11-24T00:22:30.072Z,3.2
2022-11-24T00:27:35.942Z,3.18
2022-11-24T00:32:42.064Z,3.17
2022-11-24T00:37:54.118Z,3.09
2022-11-24T00:43:04.616Z,3.1
2022-11-24T00:48:10.934Z,3.06
2022-11-24T00:53:17.899Z,3.02
2022-11-24T00:58:24.071Z,2.96
2022-11-24T01:03:30.272Z,2.99
2022-11-24T01:08:35.994Z,2.96
2022-11-24T01:13:42.384Z,3.02
2022-11-24T01:18:48.648Z,2.98
2022-11-24T01:23:54.653Z,2.98
2022-11-24T01:29:00.147Z,2.93
2022-11-24T01:34:19.568Z,2.83
2022-11-24T01:39:25.890Z,2.98
2022-11-24T01:44:32.309Z,2.88
2022-11-24T01:49:41.520Z,3.03
2022-11-24T01:54:48.101Z,3.1
2022-11-24T01:59:57.742Z,3
2022-11-24T02:05:05.156Z,2.99
2022-11-24T02:10:11.308Z,2.99
2022-11-24T02:15:17.550Z,3.04
2022-11-24T02:20:23.716Z,2.99
2022-11-24T02:25:38.818Z,3.06
2022-11-24T02:30:45.202Z,2.99
2022-11-24T02:35:51.165Z,2.92
2022-11-24T02:40:59.280Z,2.9
2022-11-24T02:46:05.418Z,2.81
2022-11-24T02:51:12.197Z,2.75
2022-11-24T02:56:18.016Z,2.7
2022-11-24T03:01:28.721Z,2.69
2022-11-24T03:06:35.421Z,2.69
2022-11-24T03:11:43.452Z,2.63
2022-11-24T03:16:49.637Z,2.64
2022-11-24T03:21:56.138Z,2.7
2022-11-24T03:27:03.958Z,2.83
2022-11-24T03:32:11.323Z,2.8
2022-11-24T03:37:17.534Z,2.7
2022-11-24T03:42:23.564Z,2.64
2022-11-24T03:47:29.871Z,2.61
2022-11-24T03:52:39.249Z,2.62
2022-11-24T03:57:45.283Z,2.69
2022-11-24T04:02:51.291Z,2.61
2022-11-24T04:07:57.270Z,2.63
2022-11-24T04:13:03.680Z,2.64
2022-11-24T04:18:09.731Z,2.65
2022-11-24T04:28:45.732Z,2.65
2022-11-24T04:33:51.849Z,2.48
2022-11-24T04:39:20.208Z,2.58
2022-11-24T04:44:10.119Z,2.51
2022-11-24T04:49:16.054Z,2.51
2022-11-24T04:54:25.438Z,2.64
2022-11-24T04:59:34.409Z,2.61
2022-11-24T05:04:40.747Z,2.57
2022-11-24T05:09:58.766Z,2.51
2022-11-24T05:14:52.897Z,2.62
2022-11-24T05:19:59.918Z,2.59
2022-11-24T05:25:05.947Z,2.61
2022-11-24T05:30:12.134Z,2.51
2022-11-24T05:35:18.099Z,2.56
2022-11-24T05:40:24.195Z,2.44
2022-11-24T05:45:27.433Z,2.29
2022-11-24T05:50:33.421Z,2.25
2022-11-24T05:55:42.442Z,2.24
2022-11-24T06:00:48.770Z,2.25
2022-11-24T06:05:57.538Z,2.33
2022-11-24T06:11:21.463Z,2.31
2022-11-24T06:16:27.964Z,2.32
2022-11-24T06:43:33.400Z,2.36
2022-11-24T06:48:39.066Z,2.27
2022-11-24T06:53:44.626Z,2.25
2022-11-24T06:58:53.664Z,2.55
2022-11-24T07:03:59.764Z,2.42
2022-11-24T07:09:05.489Z,2.37
2022-11-24T07:14:11.655Z,2.53
2022-11-24T07:19:21.665Z,2.49
2022-11-24T07:24:26.789Z,2.36
2022-11-24T07:29:32.859Z,2.37
2022-11-24T07:34:38.483Z,2.4
2022-11-24T07:39:47.672Z,2.48
2022-11-24T07:50:24.626Z,2.66
2022-11-24T07:55:30.601Z,2.6
2022-11-24T08:00:36.855Z,2.67
2022-11-24T08:06:00.962Z,2.82
2022-11-24T08:10:48.926Z,2.97
2022-11-24T08:15:58.839Z,2.91
2022-11-24T08:21:08.252Z,3.15
2022-11-24T08:26:16.242Z,3.43
2022-11-24T08:31:22.504Z,3.76
2022-11-24T08:36:26.770Z,3.73
2022-11-24T08:41:32.601Z,3.55
2022-11-24T08:46:38.751Z,3.72
2022-11-24T08:51:44.976Z,3.8
2022-11-24T08:56:51.064Z,4
2022-11-24T09:01:57.170Z,4.36
2022-11-24T09:07:01.193Z,4.1
2022-11-24T09:12:09.942Z,4.2
2022-11-24T09:17:13.135Z,4.55
2022-11-24T09:22:17.395Z,4.7
2022-11-24T09:27:23.194Z,4.66
2022-11-24T09:32:29.482Z,4.71
2022-11-24T09:37:37.240Z,5.04
2022-11-24T09:42:42.690Z,4.94
2022-11-24T09:48:04.707Z,5.33
2022-11-24T09:53:11.058Z,5.37
2022-11-24T09:58:16.954Z,5.07
2022-11-24T10:03:22.977Z,5.5
2022-11-24T10:08:26.837Z,5.96
2022-11-24T10:13:32.840Z,5.8
2022-11-24T10:18:40.485Z,5.97
2022-11-24T10:23:51.117Z,6.11
2022-11-24T10:28:49.708Z,6.25
2022-11-24T10:33:55.842Z,6.09
2022-11-24T10:39:01.707Z,5.96
2022-11-24T10:44:07.361Z,5.85
2022-11-24T10:49:13.528Z,6.08
2022-11-24T10:54:22.720Z,6.17
2022-11-24T10:59:28.990Z,6.41
2022-11-24T11:04:34.661Z,6.71
2022-11-24T11:09:43.771Z,6.64
2022-11-24T11:14:49.981Z,6.61
2022-11-24T11:20:01.935Z,7.2
2022-11-24T11:25:01.538Z,7.36
2022-11-24T11:35:11.597Z,7.52
2022-11-24T11:40:18.483Z,7.44
2022-11-24T11:45:24.498Z,7.32
2022-11-24T11:50:30.605Z,7.26
2022-11-24T11:55:36.477Z,7.35
2022-11-24T12:00:44.869Z,7.1
2022-11-24T12:05:50.956Z,7.2
2022-11-24T12:38:03.677Z,7.87
2022-11-24T12:43:09.523Z,7.72
2022-11-24T12:48:15.619Z,7.62
2022-11-24T12:53:21.617Z,7.84
2022-11-24T12:58:26.958Z,7.72
2022-11-24T13:03:32.838Z,7.71
2022-11-24T13:08:39.342Z,7.57
2022-11-24T13:13:44.936Z,7.71
2022-11-24T13:18:50.184Z,7.4
2022-11-24T13:23:56.329Z,7.47
2022-11-24T13:29:09.210Z,7.67
2022-11-24T13:34:05.450Z,7.63
2022-11-24T13:39:09.732Z,7.35
2022-11-24T13:44:17.540Z,7.49
2022-11-24T13:49:22.913Z,7.58
2022-11-24T13:54:29.420Z,7.69
2022-11-24T13:59:35.029Z,7.71
2022-11-24T14:04:41.256Z,7.65
2022-11-24T14:09:47.206Z,7.6
2022-11-24T14:14:53.373Z,7.62
2022-11-24T14:19:59.227Z,7.52
2022-11-24T14:25:05.510Z,7.52
2022-11-24T14:30:10.767Z,7.42
2022-11-24T14:35:17.214Z,7.39
2022-11-24T14:40:23.364Z,7.36
2022-11-24T14:45:29.322Z,7.26
2022-11-24T14:50:35.465Z,7.27
2022-11-24T14:55:41.392Z,7.13
2022-11-24T15:00:45.572Z,7.15
2022-11-24T15:05:51.771Z,7.12
2022-11-24T15:11:00.938Z,7.08
2022-11-24T15:16:09.867Z,7.01
2022-11-24T15:21:19.394Z,7.03
2022-11-24T15:26:26.003Z,6.89
2022-11-24T15:31:28.171Z,6.7
2022-11-24T15:36:33.565Z,6.67
2022-11-24T15:41:39.645Z,6.63
2022-11-24T15:46:43.262Z,6.59
2022-11-24T15:51:49.721Z,6.63
2022-11-24T15:56:56.071Z,6.77
2022-11-24T16:02:02.408Z,6.88
2022-11-24T16:07:08.805Z,6.95
2022-11-24T16:12:14.482Z,6.77
2022-11-24T16:17:20.696Z,6.86
2022-11-24T16:27:56.744Z,6.71
2022-11-24T16:33:03.569Z,6.67
2022-11-24T16:38:09.743Z,6.56
2022-11-24T16:48:45.891Z,6.69
2022-11-24T16:53:51.799Z,6.59
2022-11-24T16:58:57.334Z,6.51
2022-11-24T17:04:01.650Z,6.42
2022-11-24T17:09:07.752Z,6.33
2022-11-24T17:19:47.111Z,6.16
2022-11-24T17:24:53.250Z,6.35
2022-11-24T17:29:59.525Z,6.49
2022-11-24T17:35:05.619Z,6.41
2022-11-24T17:40:30.326Z,6.34
2022-11-24T17:50:53.920Z,6.51
2022-11-24T17:56:00.033Z,6.49
2022-11-24T18:01:06.281Z,6.44
2022-11-24T18:06:12.240Z,6.52
2022-11-24T18:11:18.239Z,6.64
2022-11-24T18:16:22.668Z,6.61
2022-11-24T18:21:28.953Z,6.49
2022-11-24T18:26:34.866Z,6.46
2022-11-24T18:31:44.138Z,6.32
2022-11-24T18:36:54.394Z,6.16
2022-11-24T18:42:00.622Z,6.1
2022-11-24T18:47:09.098Z,6.18
2022-11-24T18:52:18.549Z,6.27
2022-11-24T18:57:34.981Z,6.13
2022-11-24T19:02:47.029Z,6.03
2022-11-24T19:07:53.336Z,5.94
2022-11-24T19:13:02.288Z,5.79
2022-11-24T19:18:08.730Z,5.71
2022-11-24T19:23:14.869Z,5.66
2022-11-24T19:33:55.397Z,5.56
2022-11-24T19:44:31.962Z,5.36
2022-11-24T19:49:53.469Z,5.28
2022-11-24T19:55:00.398Z,5.33
2022-11-24T20:00:06.292Z,5.28
2022-11-24T20:38:19.415Z,5.28
2022-11-24T20:43:25.646Z,5.12
2022-11-24T20:48:31.542Z,5.03
2022-11-24T20:53:37.843Z,5.07
2022-11-24T20:58:44.275Z,5.04
2022-11-24T21:03:50.443Z,4.98
2022-11-24T21:09:00.553Z,4.94
2022-11-24T21:19:33.192Z,4.9
2022-11-24T21:24:39.341Z,4.8
2022-11-24T21:29:45.889Z,4.79
2022-11-24T21:34:52.875Z,4.83
2022-11-24T21:39:59.128Z,4.83
2022-11-24T21:45:04.873Z,4.78
2022-11-24T21:50:13.973Z,4.85
2022-11-24T21:55:20.549Z,4.88
2022-11-24T22:00:26.613Z,4.85
2022-11-24T22:05:32.774Z,4.84
2022-11-24T22:10:38.930Z,4.92
2022-11-24T22:15:44.830Z,4.92
2022-11-24T22:20:51.063Z,4.92
2022-11-24T22:25:57.031Z,4.97
2022-11-24T22:31:03.175Z,4.97
2022-11-24T22:36:09.427Z,5.07
2022-11-24T22:41:16.433Z,5.18
2022-11-24T22:46:22.644Z,5.2
2022-11-24T22:51:29.686Z,5.15
2022-11-24T22:56:36.000Z,5.24
2022-11-24T23:01:42.234Z,5.41
2022-11-24T23:06:48.561Z,5.48
2022-11-24T23:11:54.856Z,5.38
2022-11-24T23:17:00.767Z,5.45
2022-11-24T23:22:07.782Z,5.53
2022-11-24T23:27:13.799Z,5.54
2022-11-24T23:32:19.855Z,5.57
2022-11-24T23:37:34.432Z,5.61
2022-11-24T23:42:32.377Z,5.72
2022-11-24T23:47:42.314Z,5.85
2022-11-24T23:52:48.526Z,5.77
2022-11-24T23:57:54.634Z,5.81
